createdAt,value
2023-03-31T00:01:01.069Z,69.79
2023-03-31T00:03:36.436Z,68.09
2023-03-31T00:06:11.456Z,67.65
2023-03-31T00:08:45.654Z,68.07
2023-03-31T00:11:18.148Z,68.72
2023-03-31T00:13:51.106Z,68.97
2023-03-31T00:16:24.222Z,69.04
2023-03-31T00:18:56.853Z,69.06
2023-03-31T00:21:37.239Z,69.35
2023-03-31T00:24:10.895Z,68.61
2023-03-31T00:26:43.836Z,69.18
2023-03-31T00:29:16.487Z,68.82
2023-03-31T00:31:49.003Z,68.40
2023-03-31T00:34:21.712Z,68.66
2023-03-31T00:36:56.833Z,68.84
2023-03-31T00:42:13.944Z,69.75
2023-03-31T00:45:20.532Z,70.77
2023-03-31T00:48:04.511Z,71.23
2023-03-31T00:50:40.881Z,71.57
2023-03-31T00:53:17.229Z,71.61
2023-03-31T00:55:57.122Z,71.75
2023-03-31T00:58:31.864Z,71.74
2023-03-31T01:01:04.526Z,72.10
2023-03-31T01:03:38.567Z,72.18
2023-03-31T01:06:25.554Z,72.18
2023-03-31T01:08:58.038Z,71.97
2023-03-31T01:11:31.201Z,71.87
2023-03-31T01:14:04.498Z,71.79
2023-03-31T01:16:38.768Z,71.44
2023-03-31T01:19:16.333Z,71.23
2023-03-31T01:22:13.166Z,70.73
2023-03-31T01:25:01.072Z,70.25
2023-03-31T01:28:07.912Z,69.82
2023-03-31T01:31:22.082Z,69.14
2023-03-31T01:34:18.098Z,68.61
2023-03-31T01:37:01.986Z,68.41
2023-03-31T01:40:20.474Z,68.28
2023-03-31T01:42:59.363Z,68.20
2023-03-31T01:45:43.151Z,68.23
2023-03-31T01:49:01.381Z,68.19
2023-03-31T01:51:38.541Z,68.12
2023-03-31T01:54:25.664Z,67.83
2023-03-31T01:57:24.574Z,68.00
2023-03-31T02:00:18.472Z,68.31
2023-03-31T02:03:19.287Z,68.89
2023-03-31T02:06:01.950Z,69.23
2023-03-31T02:08:57.401Z,69.28
2023-03-31T02:11:32.017Z,69.39
2023-03-31T02:14:07.765Z,68.93
2023-03-31T02:16:58.958Z,69.02
2023-03-31T02:19:40.986Z,68.37
2023-03-31T02:22:14.133Z,68.20
2023-03-31T02:24:46.659Z,68.04
2023-03-31T02:27:24.090Z,68.22
2023-03-31T02:29:57.194Z,68.02
2023-03-31T02:32:44.123Z,68.30
2023-03-31T02:35:21.693Z,68.08
2023-03-31T02:37:54.272Z,68.18
2023-03-31T02:40:27.934Z,67.68
2023-03-31T02:43:00.522Z,67.64
2023-03-31T02:45:52.334Z,67.31
2023-03-31T02:48:35.345Z,67.71
2023-03-31T02:51:28.473Z,67.93
2023-03-31T02:54:54.853Z,68.18
2023-03-31T02:58:06.598Z,68.53
2023-03-31T03:01:02.807Z,68.75
2023-03-31T03:04:06.489Z,68.62
2023-03-31T03:07:00.556Z,68.73
2023-03-31T03:09:47.059Z,69.10
2023-03-31T03:13:07.050Z,69.11
2023-03-31T03:15:47.371Z,69.16
2023-03-31T03:18:20.446Z,69.00
2023-03-31T03:20:53.750Z,68.86
2023-03-31T03:23:26.781Z,68.97
2023-03-31T03:25:59.208Z,69.10
2023-03-31T03:28:32.011Z,68.91
2023-03-31T03:31:04.817Z,69.14
2023-03-31T03:33:38.448Z,69.75
2023-03-31T03:36:11.747Z,69.86
2023-03-31T03:38:45.217Z,69.89
2023-03-31T03:41:18.101Z,69.23
2023-03-31T03:43:50.893Z,69.04
2023-03-31T03:46:23.702Z,69.13
2023-03-31T03:48:56.544Z,68.61
2023-03-31T03:51:29.394Z,68.44
2023-03-31T03:54:03.345Z,68.19
2023-03-31T03:56:36.771Z,68.00
2023-03-31T03:59:09.726Z,67.25
2023-03-31T04:01:42.810Z,67.33
2023-03-31T04:04:16.677Z,67.46
2023-03-31T04:06:49.710Z,66.70
2023-03-31T04:09:22.306Z,66.26
2023-03-31T04:11:55.731Z,65.28
2023-03-31T04:14:28.686Z,65.81
2023-03-31T04:17:02.777Z,66.27
2023-03-31T04:19:35.674Z,66.68
2023-03-31T04:22:10.113Z,66.46
2023-03-31T04:24:44.538Z,66.81
2023-03-31T04:27:17.398Z,66.54
2023-03-31T04:29:51.997Z,66.62
2023-03-31T04:32:24.550Z,65.77
2023-03-31T04:34:58.694Z,65.05
2023-03-31T04:37:37.679Z,64.67
2023-03-31T04:40:11.985Z,64.74
2023-03-31T04:42:46.185Z,64.01
2023-03-31T04:45:18.929Z,63.63
2023-03-31T04:47:52.324Z,63.68
2023-03-31T04:50:25.340Z,63.65
2023-03-31T04:52:58.131Z,63.93
2023-03-31T04:55:31.652Z,63.75
2023-03-31T04:58:05.408Z,63.88
2023-03-31T05:00:38.320Z,64.14
2023-03-31T05:03:11.102Z,64.12
2023-03-31T05:05:44.016Z,64.13
2023-03-31T05:08:16.970Z,64.63
2023-03-31T05:10:50.563Z,65.14
2023-03-31T05:13:24.337Z,65.64
2023-03-31T05:15:56.768Z,66.00
2023-03-31T05:18:30.536Z,66.39
2023-03-31T05:21:14.886Z,66.82
2023-03-31T05:23:49.322Z,66.71
2023-03-31T05:26:23.188Z,67.18
2023-03-31T05:28:55.853Z,67.99
2023-03-31T05:31:28.244Z,68.76
2023-03-31T05:36:45.303Z,70.30
2023-03-31T05:39:18.960Z,70.44
2023-03-31T05:41:51.312Z,70.46
2023-03-31T05:44:24.048Z,70.84
2023-03-31T05:46:56.682Z,71.09
2023-03-31T05:49:29.439Z,71.17
2023-03-31T05:52:02.093Z,71.08
2023-03-31T05:54:34.696Z,71.45
2023-03-31T05:57:07.546Z,71.94
2023-03-31T05:59:41.808Z,72.04
2023-03-31T06:02:17.153Z,72.13
2023-03-31T06:04:50.325Z,72.73
2023-03-31T06:07:25.321Z,72.59
2023-03-31T06:09:59.172Z,73.36
2023-03-31T06:12:33.199Z,74.16
2023-03-31T06:15:06.907Z,73.58
2023-03-31T06:17:41.378Z,74.55
2023-03-31T06:20:27.074Z,74.65
2023-03-31T06:22:49.230Z,73.09
2023-03-31T06:25:22.150Z,71.50
2023-03-31T06:27:54.771Z,71.16
2023-03-31T06:30:27.994Z,71.38
2023-03-31T06:33:01.516Z,70.57
2023-03-31T06:35:34.218Z,69.61
2023-03-31T06:38:06.670Z,69.14
2023-03-31T06:40:39.081Z,68.98
2023-03-31T06:43:11.488Z,68.74
2023-03-31T06:45:45.892Z,68.28
2023-03-31T06:48:18.485Z,68.14
2023-03-31T06:50:50.889Z,67.28
2023-03-31T06:53:23.578Z,66.77
2023-03-31T06:55:56.387Z,66.83
2023-03-31T06:58:31.455Z,66.66
2023-03-31T07:01:05.963Z,66.57
2023-03-31T07:03:39.788Z,66.37
2023-03-31T07:06:12.543Z,65.91
2023-03-31T07:08:45.530Z,65.71
2023-03-31T07:11:21.125Z,65.43
2023-03-31T07:13:53.457Z,65.31
2023-03-31T07:16:26.382Z,64.72
2023-03-31T07:19:00.239Z,64.15
2023-03-31T07:21:33.228Z,63.80
2023-03-31T07:24:06.021Z,63.26
2023-03-31T07:26:39.969Z,62.91
2023-03-31T07:29:12.679Z,62.27
2023-03-31T07:31:47.813Z,62.00
2023-03-31T07:34:21.355Z,61.65
2023-03-31T07:36:58.311Z,60.77
2023-03-31T07:39:31.143Z,63.85
2023-03-31T07:42:03.971Z,77.22
2023-03-31T07:44:37.710Z,79.53
2023-03-31T07:47:10.328Z,80.68
2023-03-31T07:49:42.706Z,70.79
2023-03-31T07:52:16.617Z,67.56
2023-03-31T07:54:49.137Z,66.57
2023-03-31T07:57:23.334Z,74.10
2023-03-31T07:59:57.051Z,65.23
2023-03-31T08:02:30.235Z,61.48
2023-03-31T08:05:03.395Z,59.81
2023-03-31T08:07:38.207Z,57.99
2023-03-31T08:10:15.012Z,58.16
2023-03-31T08:12:49.168Z,58.19
2023-03-31T08:15:22.012Z,57.03
2023-03-31T08:17:55.589Z,56.52
2023-03-31T08:20:28.542Z,55.91
2023-03-31T08:23:01.817Z,55.39
2023-03-31T08:25:34.871Z,53.18
2023-03-31T08:28:09.054Z,52.35
2023-03-31T08:30:43.203Z,53.18
2023-03-31T08:33:16.315Z,52.63
2023-03-31T08:35:49.469Z,51.64
2023-03-31T08:38:23.049Z,50.68
2023-03-31T08:41:03.283Z,51.03
2023-03-31T08:43:43.263Z,50.70
2023-03-31T08:46:18.942Z,50.90
2023-03-31T08:48:58.898Z,51.07
2023-03-31T08:51:41.403Z,50.66
2023-03-31T08:54:27.750Z,50.11
2023-03-31T08:57:00.848Z,49.89
2023-03-31T08:59:45.685Z,50.06
2023-03-31T09:02:58.799Z,49.95
2023-03-31T09:06:00.213Z,49.59
2023-03-31T09:08:38.342Z,50.26
2023-03-31T09:11:23.512Z,50.41
2023-03-31T09:14:36.929Z,50.53
2023-03-31T09:17:35.293Z,50.51
2023-03-31T09:20:16.350Z,50.04
2023-03-31T09:22:59.725Z,48.58
2023-03-31T09:25:56.144Z,47.56
2023-03-31T09:28:38.598Z,47.23
2023-03-31T09:31:18.029Z,46.10
2023-03-31T09:33:53.940Z,45.09
2023-03-31T09:36:26.584Z,45.30
2023-03-31T09:38:59.319Z,45.58
2023-03-31T09:41:34.390Z,45.69
2023-03-31T09:44:10.751Z,46.01
2023-03-31T09:46:44.096Z,46.12
2023-03-31T09:49:20.775Z,45.88
2023-03-31T09:52:03.579Z,46.02
2023-03-31T09:54:56.912Z,46.58
2023-03-31T09:57:36.362Z,47.19
2023-03-31T10:00:18.055Z,47.69
2023-03-31T10:02:58.981Z,47.74
2023-03-31T10:05:52.359Z,47.84
2023-03-31T10:08:37.513Z,47.96
2023-03-31T10:11:12.742Z,48.03
2023-03-31T10:14:14.529Z,48.23
2023-03-31T10:16:55.980Z,48.01
2023-03-31T10:19:35.991Z,48.54
2023-03-31T10:22:25.222Z,49.18
2023-03-31T10:25:19.480Z,49.08
2023-03-31T10:27:55.064Z,50.04
2023-03-31T10:30:34.109Z,48.85
2023-03-31T10:36:00.742Z,48.34
2023-03-31T10:38:43.780Z,47.94
2023-03-31T10:41:38.362Z,48.04
2023-03-31T10:44:32.004Z,48.19
2023-03-31T10:47:21.372Z,48.51
2023-03-31T10:49:57.958Z,48.48
2023-03-31T10:52:31.331Z,48.38
2023-03-31T10:55:04.328Z,48.38
2023-03-31T10:57:47.912Z,48.61
2023-03-31T11:00:46.251Z,48.48
2023-03-31T11:03:54.713Z,48.61
2023-03-31T11:06:56.840Z,48.79
2023-03-31T11:09:57.989Z,48.41
2023-03-31T11:12:45.202Z,47.79
2023-03-31T11:15:28.527Z,48.05
2023-03-31T11:18:09.711Z,48.31
2023-03-31T11:21:05.971Z,47.07
2023-03-31T11:24:06.738Z,46.44
2023-03-31T11:27:06.499Z,45.88
2023-03-31T11:29:50.066Z,45.78
2023-03-31T11:32:44.312Z,45.23
2023-03-31T11:35:39.647Z,44.92
2023-03-31T11:38:29.310Z,44.86
2023-03-31T11:41:14.956Z,44.45
2023-03-31T11:43:54.876Z,44.21
2023-03-31T11:46:41.161Z,43.19
2023-03-31T11:49:26.627Z,43.11
2023-03-31T11:52:14.548Z,42.88
2023-03-31T11:55:19.154Z,41.72
2023-03-31T11:58:11.812Z,41.44
2023-03-31T12:01:00.187Z,41.98
2023-03-31T12:03:56.100Z,41.71
2023-03-31T12:06:32.846Z,40.85
2023-03-31T12:09:29.701Z,41.46
2023-03-31T12:12:17.508Z,41.98
2023-03-31T12:14:54.643Z,42.61
2023-03-31T12:17:29.790Z,42.77
2023-03-31T12:20:10.962Z,42.93
2023-03-31T12:22:48.217Z,42.02
2023-03-31T12:25:25.513Z,42.09
2023-03-31T12:27:59.055Z,42.60
2023-03-31T12:30:42.481Z,42.62
2023-03-31T12:33:34.774Z,42.90
2023-03-31T12:36:15.983Z,42.76
2023-03-31T12:39:18.588Z,42.73
2023-03-31T12:42:43.415Z,42.72
2023-03-31T12:45:29.774Z,42.79
2023-03-31T12:48:27.934Z,43.16
2023-03-31T12:51:11.717Z,43.63
2023-03-31T12:54:22.871Z,43.42
2023-03-31T12:57:08.077Z,43.63
2023-03-31T12:59:41.996Z,44.05
2023-03-31T13:02:19.534Z,44.17
2023-03-31T13:04:53.579Z,44.27
2023-03-31T13:07:33.912Z,44.67
2023-03-31T13:10:29.303Z,44.68
2023-03-31T13:13:17.038Z,44.76
2023-03-31T13:15:58.654Z,45.44
2023-03-31T13:18:34.196Z,45.16
2023-03-31T13:21:08.528Z,45.30
2023-03-31T13:23:42.196Z,45.24
2023-03-31T13:26:38.499Z,45.27
2023-03-31T13:29:19.902Z,45.35
2023-03-31T13:32:06.024Z,45.63
2023-03-31T13:35:07.452Z,45.37
2023-03-31T13:38:05.886Z,45.20
2023-03-31T13:41:11.772Z,45.51
2023-03-31T13:44:26.083Z,45.67
2023-03-31T13:47:44.542Z,46.28
2023-03-31T13:50:40.200Z,47.24
2023-03-31T13:53:46.258Z,48.08
2023-03-31T13:56:59.931Z,48.43
2023-03-31T14:00:01.177Z,49.05
2023-03-31T14:02:56.302Z,49.92
2023-03-31T14:05:37.312Z,50.78
2023-03-31T14:08:27.792Z,51.58
2023-03-31T14:11:14.402Z,51.91
2023-03-31T14:14:01.919Z,53.05
2023-03-31T14:16:42.065Z,54.77
2023-03-31T14:19:47.740Z,56.55
2023-03-31T14:22:34.243Z,58.17
2023-03-31T14:25:51.170Z,58.85
2023-03-31T14:28:58.372Z,59.45
2023-03-31T14:31:41.465Z,60.15
2023-03-31T14:34:43.001Z,60.98
2023-03-31T14:37:18.045Z,61.67
2023-03-31T14:39:56.828Z,62.22
2023-03-31T14:42:40.007Z,62.96
2023-03-31T14:45:25.846Z,63.87
2023-03-31T14:48:01.380Z,64.91
2023-03-31T14:50:36.646Z,65.81
2023-03-31T14:53:22.182Z,66.95
2023-03-31T14:56:03.717Z,68.01
2023-03-31T14:58:40.557Z,68.85
2023-03-31T15:01:17.704Z,70.71
2023-03-31T15:03:51.964Z,71.67
2023-03-31T15:06:26.939Z,72.93
2023-03-31T15:08:59.592Z,74.43
2023-03-31T15:11:32.748Z,74.80
2023-03-31T15:14:06.109Z,75.61
2023-03-31T15:16:43.030Z,76.98
2023-03-31T15:19:20.038Z,78.26
2023-03-31T15:22:04.461Z,78.73
2023-03-31T15:24:37.450Z,80.17
2023-03-31T15:27:29.767Z,81.11
2023-03-31T15:29:57.570Z,81.91
2023-03-31T15:32:32.785Z,83.43
2023-03-31T15:35:20.980Z,84.50
2023-03-31T15:37:42.842Z,85.69
2023-03-31T15:40:25.372Z,87.37
2023-03-31T15:43:25.771Z,88.47
2023-03-31T15:46:01.641Z,89.66
2023-03-31T15:48:36.912Z,91.19
2023-03-31T15:51:36.479Z,91.62
2023-03-31T15:54:36.134Z,92.90
2023-03-31T15:57:10.438Z,94.13
2023-03-31T15:59:56.772Z,95.24
2023-03-31T16:02:43.210Z,95.55
2023-03-31T16:05:27.574Z,96.84
2023-03-31T16:08:01.850Z,97.51
2023-03-31T16:10:35.790Z,98.52
2023-03-31T16:13:10.654Z,99.18
2023-03-31T16:15:48.320Z,100.00
2023-03-31T16:18:34.760Z,100.00
2023-03-31T16:21:09.348Z,100.00
2023-03-31T16:23:43.935Z,100.00
2023-03-31T16:26:24.101Z,100.00
2023-03-31T16:28:57.742Z,100.00
2023-03-31T16:31:40.571Z,100.00
2023-03-31T16:34:13.865Z,100.00
2023-03-31T16:36:46.659Z,100.00
2023-03-31T16:39:19.998Z,100.00
2023-03-31T16:41:52.458Z,100.00
2023-03-31T16:44:24.888Z,100.00
2023-03-31T16:46:58.462Z,100.00
2023-03-31T16:49:31.639Z,100.00
2023-03-31T16:52:06.796Z,100.00
2023-03-31T16:54:39.958Z,100.00
2023-03-31T16:57:13.968Z,100.00
2023-03-31T16:59:46.846Z,100.00
2023-03-31T17:02:21.851Z,100.00
2023-03-31T17:04:59.469Z,100.00
2023-03-31T17:07:29.099Z,100.00
2023-03-31T17:10:02.241Z,100.00
2023-03-31T17:12:36.286Z,100.00
2023-03-31T17:15:10.724Z,100.00
2023-03-31T17:17:44.618Z,100.00
2023-03-31T17:20:17.685Z,100.00
2023-03-31T17:22:51.071Z,100.00
2023-03-31T17:25:23.567Z,100.00
2023-03-31T17:27:56.478Z,100.00
2023-03-31T17:30:29.344Z,100.00
2023-03-31T17:33:02.844Z,100.00
2023-03-31T17:35:35.781Z,100.00
2023-03-31T17:38:09.862Z,100.00
2023-03-31T17:40:43.464Z,100.00
2023-03-31T17:43:17.802Z,100.00
2023-03-31T17:45:51.293Z,100.00
2023-03-31T17:48:26.701Z,100.00
2023-03-31T17:50:59.689Z,100.00
2023-03-31T17:53:32.935Z,100.00
2023-03-31T17:56:06.858Z,100.00
2023-03-31T17:58:40.431Z,100.00
2023-03-31T18:01:13.292Z,100.00
2023-03-31T18:03:46.580Z,100.00
2023-03-31T18:06:19.717Z,100.00
2023-03-31T18:08:53.436Z,100.00
2023-03-31T18:11:27.643Z,100.00
2023-03-31T18:14:02.826Z,100.00
2023-03-31T18:16:37.396Z,100.00
2023-03-31T18:19:10.160Z,100.00
2023-03-31T18:21:43.445Z,100.00
2023-03-31T18:24:17.142Z,100.00
2023-03-31T18:26:50.303Z,100.00
2023-03-31T18:29:23.666Z,100.00
2023-03-31T18:31:57.818Z,100.00
2023-03-31T18:34:31.489Z,100.00
2023-03-31T18:37:05.710Z,100.00
2023-03-31T18:39:38.522Z,100.00
2023-03-31T18:42:12.616Z,100.00
2023-03-31T18:44:46.590Z,100.00
2023-03-31T18:47:19.920Z,100.00
2023-03-31T18:49:54.694Z,100.00
2023-03-31T18:52:27.466Z,100.00
2023-03-31T18:55:00.813Z,100.00
2023-03-31T18:57:34.219Z,100.00
2023-03-31T19:00:10.273Z,100.00
2023-03-31T19:02:46.894Z,100.00
2023-03-31T19:05:20.177Z,100.00
2023-03-31T19:07:54.379Z,100.00
2023-03-31T19:10:27.853Z,100.00
2023-03-31T19:13:01.091Z,100.00
2023-03-31T19:15:34.130Z,100.00
2023-03-31T19:18:07.368Z,100.00
2023-03-31T19:20:41.140Z,100.00
2023-03-31T19:23:13.751Z,100.00
2023-03-31T19:25:46.710Z,100.00
2023-03-31T19:28:19.559Z,100.00
2023-03-31T19:30:53.634Z,100.00
2023-03-31T19:33:28.381Z,100.00
2023-03-31T19:36:01.030Z,100.00
2023-03-31T19:38:35.524Z,100.00
2023-03-31T19:41:09.161Z,100.00
2023-03-31T19:43:42.011Z,100.00
2023-03-31T19:46:15.433Z,100.00
2023-03-31T19:48:48.718Z,100.00
2023-03-31T19:51:22.230Z,100.00
2023-03-31T19:53:57.066Z,100.00
2023-03-31T19:56:31.745Z,100.00
2023-03-31T19:59:05.705Z,100.00
2023-03-31T20:01:39.203Z,100.00
2023-03-31T20:04:14.386Z,100.00
2023-03-31T20:06:47.590Z,100.00
2023-03-31T20:09:20.912Z,100.00
2023-03-31T20:11:54.508Z,100.00
2023-03-31T20:14:28.509Z,100.00
2023-03-31T20:17:03.346Z,100.00
2023-03-31T20:19:36.440Z,100.00
2023-03-31T20:22:09.210Z,100.00
2023-03-31T20:24:42.558Z,100.00
2023-03-31T20:27:16.061Z,100.00
2023-03-31T20:29:49.174Z,100.00
2023-03-31T20:32:22.554Z,100.00
2023-03-31T20:34:55.441Z,100.00
2023-03-31T20:37:28.792Z,100.00
2023-03-31T20:40:01.554Z,100.00
2023-03-31T20:42:34.869Z,100.00
2023-03-31T20:45:08.928Z,100.00
2023-03-31T20:47:41.884Z,100.00
2023-03-31T20:50:15.436Z,100.00
2023-03-31T20:52:49.136Z,100.00
2023-03-31T20:55:22.064Z,100.00
2023-03-31T20:57:55.192Z,100.00
2023-03-31T21:00:27.891Z,100.00
2023-03-31T21:03:02.701Z,100.00
2023-03-31T21:05:44.473Z,100.00
2023-03-31T21:08:17.067Z,100.00
2023-03-31T21:10:50.100Z,100.00
2023-03-31T21:13:24.196Z,100.00
2023-03-31T21:15:57.135Z,100.00
2023-03-31T21:18:31.834Z,100.00
2023-03-31T21:21:07.181Z,100.00
2023-03-31T21:23:40.424Z,100.00
2023-03-31T21:26:14.716Z,100.00
2023-03-31T21:28:48.319Z,100.00
2023-03-31T21:31:22.640Z,100.00
2023-03-31T21:33:57.902Z,100.00
2023-03-31T21:36:30.894Z,100.00
2023-03-31T21:39:03.472Z,100.00
2023-03-31T21:41:37.877Z,100.00
2023-03-31T21:44:10.618Z,100.00
2023-03-31T21:46:45.219Z,100.00
2023-03-31T21:49:18.691Z,100.00
2023-03-31T21:51:51.883Z,100.00
2023-03-31T21:54:24.342Z,100.00
2023-03-31T21:56:57.245Z,100.00
2023-03-31T21:59:29.643Z,100.00
2023-03-31T22:02:02.542Z,100.00
2023-03-31T22:04:35.748Z,100.00
2023-03-31T22:07:08.224Z,100.00
2023-03-31T22:09:41.478Z,100.00
2023-03-31T22:12:14.795Z,100.00
2023-03-31T22:14:48.243Z,100.00
2023-03-31T22:17:21.203Z,100.00
2023-03-31T22:19:54.013Z,100.00
2023-03-31T22:22:26.690Z,100.00
2023-03-31T22:24:59.642Z,100.00
2023-03-31T22:27:32.696Z,100.00
2023-03-31T22:30:06.798Z,100.00
2023-03-31T22:32:39.456Z,100.00
2023-03-31T22:35:12.362Z,100.00
2023-03-31T22:37:44.893Z,100.00
2023-03-31T22:40:17.790Z,100.00
2023-03-31T22:42:50.935Z,100.00
2023-03-31T22:45:23.664Z,100.00
2023-03-31T22:47:56.751Z,100.00
2023-03-31T22:50:29.428Z,100.00
2023-03-31T22:53:02.110Z,100.00
2023-03-31T22:55:34.876Z,100.00
2023-03-31T22:58:07.565Z,100.00
2023-03-31T23:00:41.410Z,100.00
2023-03-31T23:03:14.816Z,100.00
2023-03-31T23:05:47.453Z,100.00
2023-03-31T23:08:20.443Z,100.00
2023-03-31T23:10:57.934Z,100.00
2023-03-31T23:13:32.156Z,100.00
2023-03-31T23:16:13.783Z,100.00
2023-03-31T23:18:47.705Z,100.00
2023-03-31T23:21:25.897Z,100.00
2023-03-31T23:24:02.560Z,100.00
2023-03-31T23:26:36.071Z,100.00
2023-03-31T23:29:09.922Z,100.00
2023-03-31T23:31:42.553Z,100.00
2023-03-31T23:34:15.209Z,100.00
2023-03-31T23:36:47.973Z,100.00
2023-03-31T23:39:21.687Z,100.00
2023-03-31T23:41:54.622Z,100.00
2023-03-31T23:44:27.448Z,100.00
2023-03-31T23:47:00.373Z,100.00
2023-03-31T23:49:33.795Z,100.00
2023-03-31T23:52:06.898Z,100.00
2023-03-31T23:54:39.331Z,100.00
2023-03-31T23:57:11.977Z,100.00
2023-03-31T23:59:45.274Z,100.00
